Time;durP1;ratioP1;P1;durP2;ratioP2;P2;SDS_P1;SDS_P2;PMS_P1;PMS_P2;Temp;Humidity;BMP_temperature;BMP_pressure;BME280_temperature;BME280_humidity;BME280_pressure;Samples;Min_cycle;Max_cycle;Signal;HPM_P1;HPM_P2
2021/07/20 00:01:14;;;;;;;10.30;7.18;;;16.20;99.90;;;;;;5029131;28;20032;-78
2021/07/20 00:03:39;;;;;;;10.15;6.82;;;16.20;99.90;;;;;;5028931;28;20025;-78
2021/07/20 00:06:05;;;;;;;11.95;7.03;;;16.20;99.90;;;;;;5027141;28;20029;-78
2021/07/20 00:08:30;;;;;;;19.27;12.52;;;16.10;99.90;;;;;;5027007;28;20021;-78
2021/07/20 00:10:59;;;;;;;13.25;8.50;;;16.10;99.90;;;;;;5029138;28;20029;-78
2021/07/20 00:13:25;;;;;;;12.23;7.32;;;16.00;99.90;;;;;;5034677;28;20021;-78
2021/07/20 00:15:55;;;;;;;10.80;7.20;;;16.00;99.90;;;;;;5028770;28;20466;-78
2021/07/20 00:18:25;;;;;;;12.20;7.10;;;15.90;99.90;;;;;;5028705;28;20112;-78
2021/07/20 00:20:51;;;;;;;13.98;6.85;;;15.80;99.90;;;;;;5028819;28;20562;-78
2021/07/20 00:23:18;;;;;;;10.52;7.20;;;15.80;99.90;;;;;;5034328;28;20021;-78
2021/07/20 00:25:47;;;;;;;10.65;7.38;;;15.70;99.90;;;;;;5034345;28;20371;-78
2021/07/20 00:28:13;;;;;;;11.93;7.97;;;15.70;99.90;;;;;;5030794;28;20025;-78
2021/07/20 00:30:39;;;;;;;10.70;7.65;;;15.70;99.90;;;;;;5039425;28;20028;-78
2021/07/20 00:33:05;;;;;;;13.88;7.70;;;15.60;99.90;;;;;;5036247;28;20083;-78
2021/07/20 00:35:32;;;;;;;15.65;8.98;;;15.60;99.90;;;;;;5029847;28;20048;-78
2021/07/20 00:37:57;;;;;;;14.95;8.20;;;15.60;99.90;;;;;;5030878;28;20059;-78
2021/07/20 00:40:23;;;;;;;14.35;8.45;;;15.60;99.90;;;;;;5029127;28;20096;-78
2021/07/20 00:42:49;;;;;;;15.85;8.02;;;15.50;99.90;;;;;;5027780;28;20509;-78
2021/07/20 00:45:16;;;;;;;17.95;8.40;;;15.50;99.90;;;;;;5028058;28;20025;-78
2021/07/20 00:47:42;;;;;;;15.98;9.45;;;15.50;99.90;;;;;;5029798;28;20029;-77
2021/07/20 00:50:10;;;;;;;16.92;9.02;;;15.40;99.90;;;;;;5028917;28;20029;-78
2021/07/20 00:52:37;;;;;;;18.63;9.73;;;15.40;99.90;;;;;;5028845;28;20121;-78
2021/07/20 00:55:04;;;;;;;14.48;9.57;;;15.40;99.90;;;;;;5028993;28;20033;-77
2021/07/20 00:57:31;;;;;;;14.52;9.10;;;15.30;99.90;;;;;;5028531;28;20045;-78
2021/07/20 00:59:57;;;;;;;12.93;9.10;;;15.30;99.90;;;;;;5028357;28;20556;-78
2021/07/20 01:02:23;;;;;;;12.13;9.00;;;15.30;99.90;;;;;;5027482;28;20033;-77
2021/07/20 01:04:49;;;;;;;13.48;9.55;;;15.30;99.90;;;;;;5010184;28;20799;-78
2021/07/20 01:07:14;;;;;;;17.30;9.38;;;15.30;99.90;;;;;;5027838;28;20021;-77
2021/07/20 01:09:41;;;;;;;16.38;9.40;;;15.30;99.90;;;;;;5015563;28;20041;-78
2021/07/20 01:12:08;;;;;;;15.15;9.38;;;15.30;99.90;;;;;;5011175;28;20095;-78
2021/07/20 01:14:34;;;;;;;14.35;9.27;;;15.40;99.90;;;;;;5038618;28;20105;-78
2021/07/20 01:17:01;;;;;;;14.27;9.45;;;15.40;99.90;;;;;;5027772;28;20055;-78
2021/07/20 01:19:32;;;;;;;13.45;9.02;;;15.30;99.90;;;;;;5033934;28;20033;-78
2021/07/20 01:22:00;;;;;;;12.18;9.38;;;15.30;99.90;;;;;;5026913;28;20033;-78
2021/07/20 01:24:26;;;;;;;16.58;9.52;;;15.30;99.90;;;;;;5027955;28;20017;-78
2021/07/20 01:26:53;;;;;;;15.95;9.65;;;15.30;99.90;;;;;;5028175;28;20504;-78
2021/07/20 01:29:20;;;;;;;16.48;9.07;;;15.40;99.90;;;;;;5034611;28;20025;-78
2021/07/20 01:31:46;;;;;;;14.13;9.43;;;15.40;99.90;;;;;;5032058;28;20126;-77
2021/07/20 01:34:14;;;;;;;13.63;9.43;;;15.40;99.90;;;;;;5028058;28;20025;-78
2021/07/20 01:36:40;;;;;;;14.32;9.05;;;15.40;99.90;;;;;;5009927;28;20029;-78
2021/07/20 01:39:09;;;;;;;14.32;9.10;;;15.40;99.90;;;;;;5027924;28;20021;-77
2021/07/20 01:41:38;;;;;;;15.73;9.32;;;15.50;99.90;;;;;;5009983;28;20037;-78
2021/07/20 01:44:10;;;;;;;14.52;8.95;;;15.50;99.90;;;;;;5027551;28;20025;-78
2021/07/20 01:46:37;;;;;;;12.45;9.45;;;15.50;99.90;;;;;;5027268;28;20037;-77
2021/07/20 01:49:07;;;;;;;13.98;9.65;;;15.50;99.90;;;;;;5030505;28;20029;-78
2021/07/20 01:51:34;;;;;;;13.27;8.77;;;15.50;99.90;;;;;;5027369;28;20063;-78
2021/07/20 01:54:01;;;;;;;13.10;9.73;;;15.50;99.90;;;;;;5009273;28;20549;-78
2021/07/20 01:56:27;;;;;;;15.63;9.15;;;15.50;99.90;;;;;;5012228;28;20066;-78
2021/07/20 01:58:53;;;;;;;13.50;9.45;;;15.50;99.90;;;;;;5033895;28;20051;-78
2021/07/20 02:09:51;;;;;;;17.60;9.75;;;15.30;99.90;;;;;;5028179;28;20025;-78
2021/07/20 02:12:19;;;;;;;15.90;9.07;;;15.30;99.90;;;;;;5028125;28;20040;-78
2021/07/20 02:14:48;;;;;;;13.77;9.27;;;15.30;99.90;;;;;;5027894;28;20017;-77
2021/07/20 02:17:14;;;;;;;15.27;9.65;;;15.30;99.90;;;;;;5036152;28;20033;-78
2021/07/20 02:19:51;;;;;;;13.57;8.52;;;15.20;99.90;;;;;;5030595;28;20112;-78
2021/07/20 02:22:21;;;;;;;16.25;9.70;;;15.20;99.90;;;;;;5027644;28;20040;-78
2021/07/20 02:24:52;;;;;;;13.82;9.45;;;15.10;99.90;;;;;;5027693;28;20544;-77
2021/07/20 02:27:20;;;;;;;16.48;8.95;;;15.10;99.90;;;;;;5036218;28;20052;-78
2021/07/20 02:29:48;;;;;;;13.05;8.85;;;15.10;99.90;;;;;;5033259;28;20057;-77
2021/07/20 02:32:14;;;;;;;15.43;9.90;;;15.00;99.90;;;;;;5043340;28;20069;-77
2021/07/20 02:34:43;;;;;;;15.88;10.93;;;15.00;99.90;;;;;;5032279;28;20052;-78
2021/07/20 02:37:09;;;;;;;15.50;10.40;;;14.90;99.90;;;;;;5032123;28;20025;-78
2021/07/20 02:39:35;;;;;;;19.05;10.65;;;14.90;99.90;;;;;;5030892;28;20044;-78
2021/07/20 02:42:05;;;;;;;14.30;9.63;;;14.90;99.90;;;;;;5044367;28;20029;-78
2021/07/20 02:44:31;;;;;;;13.35;9.05;;;14.80;99.90;;;;;;5030964;28;20041;-77
2021/07/20 02:46:58;;;;;;;13.68;10.05;;;14.80;99.90;;;;;;5030436;28;20072;-78
2021/07/20 02:49:25;;;;;;;12.40;9.90;;;14.70;99.90;;;;;;5031233;28;20513;-78
2021/07/20 02:51:51;;;;;;;16.10;11.02;;;14.70;99.90;;;;;;5010106;28;20036;-77
2021/07/20 02:54:20;;;;;;;16.27;10.48;;;14.70;99.90;;;;;;5030822;28;20091;-77
2021/07/20 02:56:46;;;;;;;16.58;11.63;;;14.60;99.90;;;;;;5030751;28;20092;-78
2021/07/20 02:59:17;;;;;;;15.85;10.68;;;14.60;99.90;;;;;;5030611;28;20061;-77
2021/07/20 03:01:44;;;;;;;18.75;11.57;;;14.60;99.90;;;;;;5032751;28;20067;-78
2021/07/20 03:04:10;;;;;;;15.25;10.75;;;14.50;99.90;;;;;;5012624;28;20044;-77
2021/07/20 03:06:39;;;;;;;18.35;11.18;;;14.50;99.90;;;;;;5031411;28;20026;-78
2021/07/20 03:09:05;;;;;;;16.98;11.55;;;14.50;99.90;;;;;;5030627;28;20327;-78
2021/07/20 03:11:37;;;;;;;18.20;11.40;;;14.50;99.90;;;;;;5033312;28;20040;-78
2021/07/20 03:14:08;;;;;;;17.67;11.75;;;14.40;99.90;;;;;;5030530;28;20060;-78
2021/07/20 03:16:36;;;;;;;15.30;11.60;;;14.50;99.90;;;;;;5030472;28;20025;-78
2021/07/20 03:19:04;;;;;;;14.32;10.88;;;14.40;99.90;;;;;;5012588;28;20049;-78
2021/07/20 03:21:32;;;;;;;14.02;11.13;;;14.40;99.90;;;;;;5030758;28;20029;-77
2021/07/20 03:23:58;;;;;;;17.60;11.63;;;14.40;99.90;;;;;;5012078;28;20544;-78
2021/07/20 03:26:24;;;;;;;17.20;12.10;;;14.40;99.90;;;;;;5029738;28;20051;-77
2021/07/20 03:28:51;;;;;;;15.05;10.60;;;14.40;99.90;;;;;;5029689;28;20486;-77
2021/07/20 03:31:18;;;;;;;17.35;12.07;;;14.40;99.90;;;;;;5039631;28;20029;-77
2021/07/20 03:33:44;;;;;;;16.27;11.63;;;14.40;99.90;;;;;;5030364;28;20379;-78
2021/07/20 03:36:10;;;;;;;15.18;11.43;;;14.40;99.90;;;;;;5029433;28;20100;-78
2021/07/20 03:38:38;;;;;;;16.75;11.85;;;14.40;99.90;;;;;;5029476;28;20112;-77
2021/07/20 03:41:05;;;;;;;16.17;11.13;;;14.40;99.90;;;;;;5029626;28;20037;-77
2021/07/20 03:43:31;;;;;;;17.40;11.93;;;14.40;99.90;;;;;;5029917;28;20033;-77
2021/07/20 03:45:59;;;;;;;16.80;11.85;;;14.40;99.90;;;;;;5030224;28;20033;-78
2021/07/20 03:48:25;;;;;;;18.42;12.90;;;14.40;99.90;;;;;;5029325;28;20037;-78
2021/07/20 03:50:53;;;;;;;19.27;12.07;;;14.40;99.90;;;;;;5030085;28;20022;-78
2021/07/20 03:53:19;;;;;;;18.27;12.27;;;14.40;99.90;;;;;;5029413;28;20072;-78
2021/07/20 03:55:53;;;;;;;14.50;11.02;;;14.40;99.90;;;;;;5029379;28;20013;-78
2021/07/20 03:58:19;;;;;;;15.40;10.95;;;14.40;99.90;;;;;;5029231;28;20504;-77
2021/07/20 04:00:53;;;;;;;17.40;10.88;;;14.50;99.90;;;;;;5029682;28;20155;-78
2021/07/20 04:03:22;;;;;;;19.33;11.63;;;14.50;99.90;;;;;;5031389;28;20026;-78
2021/07/20 04:05:54;;;;;;;18.35;11.65;;;14.60;99.90;;;;;;5029715;28;20343;-78
2021/07/20 04:08:21;;;;;;;18.00;11.05;;;14.60;99.90;;;;;;5029036;28;20033;-78
2021/07/20 04:10:48;;;;;;;16.70;11.60;;;14.60;99.90;;;;;;5013418;28;20056;-78
2021/07/20 04:13:14;;;;;;;15.65;11.73;;;14.70;99.90;;;;;;5029184;28;20037;-78
2021/07/20 04:15:59;;;;;;;18.75;11.50;;;14.70;99.90;;;;;;5041180;28;20028;-78
2021/07/20 04:18:25;;;;;;;17.02;12.38;;;14.70;99.90;;;;;;5031935;28;20033;-74
2021/07/20 04:20:52;;;;;;;16.10;11.57;;;14.70;99.90;;;;;;5016342;28;20033;-72
2021/07/20 04:23:23;;;;;;;16.15;11.48;;;14.70;99.90;;;;;;5034298;28;20040;-71
2021/07/20 04:25:51;;;;;;;18.05;10.48;;;14.70;99.90;;;;;;5034458;28;20531;-71
2021/07/20 04:28:18;;;;;;;16.67;11.25;;;14.70;99.90;;;;;;5034426;28;20197;-71
2021/07/20 04:30:45;;;;;;;16.98;10.93;;;14.80;99.90;;;;;;5034009;28;20049;-71
2021/07/20 04:33:14;;;;;;;16.77;11.57;;;14.80;99.90;;;;;;5034056;28;20026;-71
2021/07/20 04:35:40;;;;;;;18.48;11.27;;;14.80;99.90;;;;;;5034467;28;20374;-71
2021/07/20 04:38:07;;;;;;;15.20;11.85;;;14.90;99.90;;;;;;5034027;28;20343;-71
2021/07/20 04:40:33;;;;;;;18.70;11.25;;;14.90;99.90;;;;;;5034194;28;20494;-71
2021/07/20 04:42:59;;;;;;;16.13;11.40;;;14.90;99.90;;;;;;5033814;28;20018;-72
2021/07/20 04:45:27;;;;;;;19.17;12.00;;;15.00;99.90;;;;;;5034183;28;20382;-71
2021/07/20 04:47:52;;;;;;;16.73;11.75;;;15.00;99.90;;;;;;5034238;28;20029;-71
2021/07/20 04:50:18;;;;;;;18.55;12.75;;;15.10;99.90;;;;;;5033914;28;20373;-71
2021/07/20 04:52:44;;;;;;;15.70;11.80;;;15.00;99.90;;;;;;5033755;28;20074;-71
2021/07/20 04:55:11;;;;;;;20.75;12.40;;;15.00;99.90;;;;;;5033502;28;20405;-71
2021/07/20 04:57:37;;;;;;;19.45;12.55;;;15.00;99.90;;;;;;5033076;28;20079;-73
2021/07/20 05:00:12;;;;;;;19.23;11.30;;;15.10;99.90;;;;;;5033586;28;20134;-73
2021/07/20 05:02:43;;;;;;;17.38;12.20;;;15.10;99.90;;;;;;5033091;28;20033;-72
2021/07/20 05:05:12;;;;;;;18.23;11.98;;;15.20;99.90;;;;;;5029896;28;20080;-74
2021/07/20 05:07:39;;;;;;;19.63;11.77;;;15.20;99.90;;;;;;5022052;28;20111;-72
2021/07/20 05:10:06;;;;;;;17.38;11.63;;;15.30;99.90;;;;;;5030035;28;20061;-72
2021/07/20 05:12:41;;;;;;;23.27;11.73;;;15.50;99.90;;;;;;5026031;28;20029;-73
2021/07/20 05:15:08;;;;;;;18.15;11.63;;;15.50;99.90;;;;;;5020021;28;20076;-74
2021/07/20 05:17:36;;;;;;;14.18;10.82;;;15.60;99.90;;;;;;5027620;28;20550;-71
2021/07/20 05:20:03;;;;;;;17.98;11.05;;;15.70;99.90;;;;;;5030180;28;20021;-72
2021/07/20 05:22:34;;;;;;;14.38;10.90;;;15.70;99.90;;;;;;5030358;28;20083;-74
2021/07/20 05:25:01;;;;;;;16.90;10.63;;;15.80;99.90;;;;;;5027699;28;20021;-74
2021/07/20 05:27:29;;;;;;;15.13;11.73;;;15.80;99.90;;;;;;5018238;28;20503;-73
2021/07/20 05:29:56;;;;;;;16.60;10.68;;;16.00;99.90;;;;;;5026459;28;20034;-73
2021/07/20 05:32:23;;;;;;;13.48;9.23;;;16.00;99.90;;;;;;5032631;28;20108;-72
2021/07/20 05:34:49;;;;;;;17.23;10.05;;;16.20;99.90;;;;;;5027861;28;20036;-72
2021/07/20 05:37:21;;;;;;;14.68;10.07;;;16.30;99.90;;;;;;5027048;28;20018;-72
2021/07/20 05:39:48;;;;;;;15.40;10.23;;;16.30;99.90;;;;;;5029167;28;20080;-74
2021/07/20 05:42:17;;;;;;;14.82;10.00;;;16.40;99.90;;;;;;5030525;28;20040;-73
2021/07/20 05:44:47;;;;;;;17.50;10.35;;;16.40;99.90;;;;;;5034883;28;20017;-73
2021/07/20 05:47:15;;;;;;;15.20;10.43;;;16.40;99.90;;;;;;5027211;28;20021;-75
2021/07/20 05:49:42;;;;;;;13.85;10.18;;;16.50;99.90;;;;;;5029424;28;20095;-75
2021/07/20 05:52:08;;;;;;;18.15;10.73;;;16.50;99.90;;;;;;5029598;28;20048;-75
2021/07/20 05:54:35;;;;;;;14.82;10.02;;;16.60;99.90;;;;;;5033541;28;20037;-75
2021/07/20 05:57:02;;;;;;;17.58;11.40;;;16.60;99.90;;;;;;5023052;28;20116;-75
2021/07/20 05:59:28;;;;;;;16.65;10.60;;;16.70;99.90;;;;;;5023623;28;20316;-75
2021/07/20 06:01:55;;;;;;;16.73;9.98;;;16.70;99.90;;;;;;5025852;28;20063;-75
2021/07/20 06:04:22;;;;;;;17.48;12.60;;;16.80;99.90;;;;;;5006741;28;20029;-76
2021/07/20 06:06:49;;;;;;;18.63;10.80;;;16.90;99.90;;;;;;5030355;28;20103;-75
2021/07/20 06:09:21;;;;;;;18.02;10.65;;;17.00;99.90;;;;;;5029693;28;20112;-76
2021/07/20 06:11:49;;;;;;;14.38;9.55;;;17.10;99.90;;;;;;5028975;28;20397;-77
2021/07/20 06:14:17;;;;;;;17.92;10.85;;;17.20;99.90;;;;;;5011236;28;20029;-77
2021/07/20 06:16:44;;;;;;;13.68;9.50;;;17.20;99.90;;;;;;5028955;28;20025;-77
2021/07/20 06:19:10;;;;;;;14.45;9.93;;;17.30;99.90;;;;;;5010576;28;20032;-77
2021/07/20 06:21:38;;;;;;;16.10;9.65;;;17.30;99.90;;;;;;5030612;28;20422;-76
2021/07/20 06:24:05;;;;;;;15.10;9.57;;;17.40;99.90;;;;;;5017464;28;20033;-75
2021/07/20 06:26:32;;;;;;;14.38;9.65;;;17.50;99.90;;;;;;5040483;28;20019;-74
2021/07/20 06:29:01;;;;;;;11.60;9.00;;;17.50;99.90;;;;;;5018598;28;20420;-75
2021/07/20 06:31:28;;;;;;;13.60;9.20;;;17.50;99.90;;;;;;5034347;28;20432;-80
2021/07/20 06:33:55;;;;;;;13.77;9.93;;;17.60;99.90;;;;;;5028941;28;20022;-73
2021/07/20 06:36:22;;;;;;;15.65;9.48;;;17.70;99.90;;;;;;5036040;28;20055;-73
2021/07/20 06:38:48;;;;;;;13.50;9.73;;;17.80;99.90;;;;;;5036256;28;20521;-73
2021/07/20 06:41:17;;;;;;;16.85;9.70;;;17.90;99.90;;;;;;5036175;28;20459;-73
2021/07/20 06:43:43;;;;;;;15.60;9.73;;;17.90;99.90;;;;;;5035971;28;20501;-73
2021/07/20 06:46:10;;;;;;;14.93;9.52;;;18.00;99.90;;;;;;5018350;28;20022;-74
2021/07/20 06:48:44;;;;;;;16.10;9.77;;;18.10;99.90;;;;;;5033273;28;20123;-79
2021/07/20 06:51:10;;;;;;;14.95;9.27;;;18.10;99.90;;;;;;5026473;28;20524;-79
2021/07/20 06:53:37;;;;;;;14.07;10.00;;;18.30;99.90;;;;;;5030156;28;20055;-74
2021/07/20 06:56:05;;;;;;;11.48;9.10;;;18.40;99.90;;;;;;5036877;28;20060;-73
2021/07/20 06:58:33;;;;;;;14.38;9.23;;;18.40;99.90;;;;;;5035766;28;20041;-73
2021/07/20 07:01:01;;;;;;;13.85;8.77;;;18.30;99.90;;;;;;5035947;28;20017;-73
2021/07/20 07:03:37;;;;;;;17.50;10.57;;;18.40;99.90;;;;;;5035977;28;20198;-73
2021/07/20 07:06:04;;;;;;;16.42;10.02;;;18.60;99.90;;;;;;5035900;28;20067;-74
2021/07/20 07:08:31;;;;;;;15.90;10.35;;;18.60;99.90;;;;;;5035706;28;20496;-73
2021/07/20 07:10:59;;;;;;;13.70;9.38;;;18.60;99.90;;;;;;5035810;28;20045;-73
2021/07/20 07:13:26;;;;;;;13.73;8.75;;;18.70;99.90;;;;;;5035448;28;20366;-73
2021/07/20 07:15:53;;;;;;;17.63;10.40;;;18.90;99.90;;;;;;5034394;28;20069;-74
2021/07/20 07:18:20;;;;;;;14.52;9.32;;;18.90;99.90;;;;;;5035415;28;20080;-73
2021/07/20 07:20:47;;;;;;;14.80;9.95;;;19.00;99.90;;;;;;5035635;28;20022;-74
2021/07/20 07:23:16;;;;;;;15.15;9.68;;;19.00;99.90;;;;;;5035172;28;20052;-74
2021/07/20 07:25:46;;;;;;;12.55;9.35;;;19.00;99.90;;;;;;5032085;28;20028;-79
2021/07/20 07:28:13;;;;;;;14.63;9.82;;;19.10;99.90;;;;;;5009985;28;20033;-79
2021/07/20 07:30:41;;;;;;;15.05;9.73;;;19.20;99.90;;;;;;5026786;28;20063;-80
2021/07/20 07:33:06;;;;;;;12.90;9.20;;;19.20;99.90;;;;;;5028248;28;20047;-79
2021/07/20 07:35:34;;;;;;;16.05;9.93;;;19.20;99.90;;;;;;5026860;28;20026;-77
2021/07/20 07:38:00;;;;;;;16.30;9.68;;;19.20;99.90;;;;;;5026982;28;20021;-77
2021/07/20 07:40:27;;;;;;;14.48;8.55;;;19.20;99.90;;;;;;5029749;28;20037;-75
2021/07/20 07:42:54;;;;;;;16.08;9.30;;;19.30;99.90;;;;;;5023588;28;20022;-80
2021/07/20 07:45:20;;;;;;;14.55;9.15;;;19.40;99.90;;;;;;5029663;28;20100;-73
2021/07/20 07:47:46;;;;;;;11.88;9.50;;;19.40;99.90;;;;;;5032067;28;20079;-76
2021/07/20 07:50:13;;;;;;;11.95;8.07;;;19.40;99.90;;;;;;5035086;28;20529;-81
2021/07/20 07:52:39;;;;;;;12.55;8.73;;;19.40;99.90;;;;;;5016849;28;20033;-78
2021/07/20 07:55:06;;;;;;;15.70;9.02;;;19.50;99.90;;;;;;5021122;28;20083;-77
2021/07/20 07:57:32;;;;;;;13.35;9.00;;;19.50;99.90;;;;;;5031094;28;20060;-76
2021/07/20 07:59:59;;;;;;;15.07;9.55;;;19.40;99.90;;;;;;5022874;28;20060;-77
2021/07/20 08:02:34;;;;;;;13.77;9.05;;;19.50;99.90;;;;;;5030546;28;20080;-77
2021/07/20 08:05:07;;;;;;;13.50;9.00;;;19.60;99.90;;;;;;5021685;28;20091;-77
2021/07/20 08:07:34;;;;;;;15.05;8.18;;;19.80;99.90;;;;;;5012757;28;20041;-77
2021/07/20 08:10:01;;;;;;;13.40;8.27;;;19.80;99.90;;;;;;5009599;28;20025;-77
2021/07/20 08:12:28;;;;;;;16.10;9.50;;;19.80;99.90;;;;;;5009527;28;20099;-77
2021/07/20 08:14:54;;;;;;;12.93;8.07;;;19.90;99.90;;;;;;5010881;28;20037;-77
2021/07/20 08:17:22;;;;;;;13.63;8.40;;;19.90;99.90;;;;;;5019600;28;20048;-77
2021/07/20 08:19:49;;;;;;;14.10;8.25;;;20.00;99.90;;;;;;5007368;28;20021;-77
2021/07/20 08:22:17;;;;;;;12.68;8.77;;;20.10;99.90;;;;;;5024694;28;20482;-77
2021/07/20 08:24:55;;;;;;;14.95;8.40;;;20.10;99.90;;;;;;5024783;28;20044;-77
2021/07/20 08:27:30;;;;;;;11.80;8.60;;;20.10;99.90;;;;;;5020075;28;20033;-77
2021/07/20 08:29:58;;;;;;;11.07;7.85;;;20.10;99.90;;;;;;5026354;28;20406;-77
2021/07/20 08:32:27;;;;;;;11.85;7.35;;;20.20;99.90;;;;;;5028816;28;20029;-77
2021/07/20 08:34:59;;;;;;;12.52;7.63;;;20.30;99.90;;;;;;5024027;28;20116;-77
2021/07/20 08:37:27;;;;;;;11.15;7.05;;;20.40;99.90;;;;;;5026043;28;20032;-78
2021/07/20 08:39:54;;;;;;;11.25;7.85;;;20.40;99.90;;;;;;5025842;28;20512;-78
2021/07/20 08:42:49;;;;;;;10.45;6.70;;;20.30;99.90;;;;;;5014501;28;20044;-78
2021/07/20 08:45:25;;;;;;;9.70;7.50;;;20.40;99.90;;;;;;5020473;28;20124;-78
2021/07/20 08:48:17;;;;;;;9.88;7.38;;;20.40;99.90;;;;;;5015484;28;20169;-78
2021/07/20 08:50:45;;;;;;;11.43;8.30;;;20.50;99.90;;;;;;5014315;28;20810;-78
2021/07/20 08:53:18;;;;;;;11.52;8.05;;;20.60;99.90;;;;;;5014831;28;20753;-78
2021/07/20 08:55:49;;;;;;;9.23;6.85;;;20.70;99.90;;;;;;5016473;28;20334;-78
2021/07/20 08:58:30;;;;;;;12.52;7.50;;;20.70;99.90;;;;;;5009507;28;20045;-78
2021/07/20 09:01:09;;;;;;;10.75;8.13;;;20.80;99.90;;;;;;5022697;28;20033;-78
2021/07/20 09:03:52;;;;;;;13.18;8.02;;;20.80;99.90;;;;;;5031195;28;20041;-78
2021/07/20 09:06:40;;;;;;;11.02;7.32;;;20.90;99.90;;;;;;5027253;28;20121;-78
2021/07/20 09:09:13;;;;;;;12.48;7.35;;;20.90;99.90;;;;;;5033374;28;20025;-74
2021/07/20 09:11:53;;;;;;;11.30;7.25;;;20.90;99.90;;;;;;5033631;28;20108;-74
2021/07/20 09:14:41;;;;;;;11.93;7.53;;;20.90;99.90;;;;;;5033789;28;20053;-74
2021/07/20 09:17:12;;;;;;;10.45;7.65;;;21.10;99.90;;;;;;5029632;28;20025;-79
2021/07/20 09:20:29;;;;;;;14.65;7.57;;;21.30;99.90;;;;;;5027048;28;20410;-80
2021/07/20 09:23:07;;;;;;;11.52;8.15;;;21.40;99.90;;;;;;5006035;28;20211;-78
2021/07/20 09:25:34;;;;;;;12.05;7.28;;;21.40;99.90;;;;;;5004287;28;20017;-75
2021/07/20 09:28:09;;;;;;;11.20;7.82;;;21.40;99.90;;;;;;5033277;28;20026;-74
2021/07/20 09:30:40;;;;;;;11.80;7.47;;;21.40;99.90;;;;;;5033631;28;20013;-74
2021/07/20 09:33:09;;;;;;;13.05;8.05;;;21.40;99.90;;;;;;5033250;28;20060;-75
2021/07/20 09:35:56;;;;;;;17.88;8.98;;;21.40;99.90;;;;;;5033706;28;20374;-75
2021/07/20 09:38:49;;;;;;;13.95;8.23;;;21.60;99.90;;;;;;5032054;28;20084;-75
2021/07/20 09:41:41;;;;;;;11.13;7.93;;;21.70;99.90;;;;;;5033165;28;20025;-74
2021/07/20 09:44:50;;;;;;;12.45;7.60;;;21.80;99.90;;;;;;5031204;28;20033;-77
2021/07/20 09:47:33;;;;;;;12.20;8.63;;;21.90;99.90;;;;;;5025105;28;20121;-76
2021/07/20 09:50:07;;;;;;;12.02;7.93;;;22.00;99.90;;;;;;5022611;28;20197;-77
2021/07/20 09:52:42;;;;;;;11.27;8.60;;;22.20;99.90;;;;;;5024706;28;20017;-77
2021/07/20 09:55:25;;;;;;;13.63;8.68;;;22.40;99.90;;;;;;5024782;28;20030;-76
2021/07/20 09:58:00;;;;;;;10.80;8.25;;;22.70;99.90;;;;;;5026596;28;20049;-75
2021/07/20 10:00:34;;;;;;;10.75;8.63;;;22.90;99.90;;;;;;5032588;28;20029;-75
2021/07/20 10:03:13;;;;;;;11.70;8.45;;;23.00;99.90;;;;;;5014736;28;20029;-75
2021/07/20 10:05:48;;;;;;;11.93;7.90;;;23.10;99.90;;;;;;5033770;28;20104;-75
2021/07/20 10:08:42;;;;;;;19.88;8.88;;;23.30;99.90;;;;;;5032997;28;20029;-75
2021/07/20 10:11:07;;;;;;;12.52;8.73;;;23.70;99.90;;;;;;5020778;28;20025;-76
2021/07/20 10:13:39;;;;;;;13.85;9.30;;;24.00;99.90;;;;;;5032875;28;20036;-75
2021/07/20 10:16:27;;;;;;;11.85;9.45;;;24.00;99.90;;;;;;5032747;28;20108;-76
2021/07/20 10:19:10;;;;;;;12.60;9.57;;;24.10;99.90;;;;;;5033070;28;20485;-75
2021/07/20 10:21:38;;;;;;;12.60;9.70;;;24.30;99.90;;;;;;5033451;28;20097;-76
2021/07/20 10:24:09;;;;;;;13.52;9.60;;;24.30;99.90;;;;;;5014293;28;20463;-77
2021/07/20 10:27:00;;;;;;;12.85;9.25;;;24.00;99.90;;;;;;5013850;28;20105;-76
2021/07/20 10:29:42;;;;;;;14.13;8.85;;;24.00;99.90;;;;;;5030368;28;20017;-77
2021/07/20 10:32:14;;;;;;;12.38;9.25;;;24.00;99.90;;;;;;5033020;28;20042;-77
2021/07/20 10:34:44;;;;;;;13.43;10.13;;;24.00;99.90;;;;;;5013353;28;20767;-77
2021/07/20 10:37:18;;;;;;;16.55;10.00;;;24.10;99.90;;;;;;5039149;28;20025;-77
2021/07/20 10:39:54;;;;;;;12.57;9.20;;;24.20;99.90;;;;;;5033175;28;20017;-79
2021/07/20 10:42:26;;;;;;;14.98;10.10;;;24.50;99.90;;;;;;5014139;28;20028;-76
2021/07/20 10:45:13;;;;;;;14.18;9.43;;;24.70;99.90;;;;;;5033734;28;20030;-78
2021/07/20 10:47:49;;;;;;;13.50;9.40;;;24.90;99.90;;;;;;5034119;28;20022;-77
2021/07/20 10:50:56;;;;;;;16.42;10.45;;;25.10;99.90;;;;;;5034060;28;20416;-75
2021/07/20 10:53:37;;;;;;;14.82;10.23;;;25.00;99.90;;;;;;4992726;28;20045;-76
2021/07/20 10:56:17;;;;;;;18.55;10.93;;;24.80;99.90;;;;;;5036897;28;20021;-76
2021/07/20 10:59:13;;;;;;;13.90;9.98;;;24.60;99.90;;;;;;5035965;28;20382;-76
2021/07/20 11:01:54;;;;;;;15.15;10.82;;;24.70;99.90;;;;;;5036760;28;20075;-76
2021/07/20 11:04:34;;;;;;;12.52;9.82;;;25.00;99.90;;;;;;5037718;28;20029;-77
2021/07/20 11:07:02;;;;;;;13.68;9.93;;;24.80;99.90;;;;;;5048984;28;20427;-78
2021/07/20 11:09:29;;;;;;;15.70;10.25;;;24.60;99.90;;;;;;5043229;28;20029;-77
2021/07/20 11:12:04;;;;;;;16.48;10.60;;;24.40;99.90;;;;;;5026465;28;20053;-76
2021/07/20 11:14:31;;;;;;;;;;;24.10;99.90;;;;;;5036476;28;20026;-76
2021/07/20 11:16:59;;;;;;;16.13;11.13;;;23.80;99.90;;;;;;5035842;28;19915;-76
2021/07/20 11:19:29;;;;;;;13.02;9.93;;;23.40;99.90;;;;;;5035858;28;20025;-76
2021/07/20 11:21:57;;;;;;;14.52;10.55;;;23.50;99.90;;;;;;5034670;28;20060;-76
2021/07/20 11:24:24;;;;;;;13.93;10.63;;;23.60;99.90;;;;;;5035530;28;20079;-76
2021/07/20 11:26:50;;;;;;;12.60;9.73;;;23.70;99.90;;;;;;5035446;28;20026;-76
2021/07/20 11:29:16;;;;;;;13.15;10.40;;;24.00;99.90;;;;;;5035707;28;20127;-76
2021/07/20 11:31:48;;;;;;;14.38;10.57;;;24.40;99.90;;;;;;4998133;28;20026;-76
2021/07/20 11:34:20;;;;;;;13.52;10.65;;;24.70;99.90;;;;;;5025979;28;20021;-75
2021/07/20 11:36:46;;;;;;;15.73;10.98;;;24.90;99.90;;;;;;5033866;28;20041;-75
2021/07/20 11:39:22;;;;;;;14.43;10.98;;;25.20;99.90;;;;;;5031797;28;20029;-75
2021/07/20 11:41:55;;;;;;;14.43;11.57;;;25.20;99.90;;;;;;5034479;28;20525;-75
2021/07/20 11:44:33;;;;;;;15.63;10.32;;;25.10;99.90;;;;;;5030346;28;20120;-77
2021/07/20 11:47:08;;;;;;;17.17;11.43;;;25.00;99.90;;;;;;5040502;28;20155;-77
2021/07/20 11:50:01;;;;;;;16.92;10.85;;;24.80;99.90;;;;;;5021684;28;20036;-77
2021/07/20 11:52:46;;;;;;;15.13;10.93;;;24.50;99.90;;;;;;5034659;28;20037;-78
2021/07/20 11:55:28;;;;;;;18.27;11.43;;;24.60;99.90;;;;;;4998286;28;20116;-77
2021/07/20 11:58:21;;;;;;;15.35;11.13;;;25.00;99.90;;;;;;5035805;28;20049;-79
2021/07/20 12:01:24;;;;;;;14.00;10.60;;;25.40;99.90;;;;;;5041034;28;20032;-79
2021/07/20 12:03:57;;;;;;;16.63;11.85;;;25.50;99.90;;;;;;5037579;28;20072;-77
2021/07/20 12:06:37;;;;;;;16.67;11.25;;;25.40;99.90;;;;;;5031227;28;20037;-78
2021/07/20 12:09:43;;;;;;;14.85;11.55;;;25.50;99.90;;;;;;5031370;28;20084;-77
2021/07/20 12:12:10;;;;;;;16.00;11.75;;;25.60;99.90;;;;;;4982808;28;20095;-77
2021/07/20 12:14:36;;;;;;;13.65;10.95;;;26.10;99.90;;;;;;5018563;28;20086;-78
2021/07/20 12:17:03;;;;;;;14.38;10.88;;;26.20;99.90;;;;;;5035408;28;20021;-77
2021/07/20 12:19:35;;;;;;;15.00;10.77;;;26.50;99.90;;;;;;5035116;28;20343;-77
2021/07/20 12:22:08;;;;;;;15.05;10.43;;;26.90;99.90;;;;;;5035170;28;20026;-77
2021/07/20 12:24:35;;;;;;;16.02;10.77;;;27.00;99.90;;;;;;5035362;28;20072;-78
2021/07/20 12:27:06;;;;;;;14.48;10.32;;;26.80;99.90;;;;;;5036052;28;20108;-77
2021/07/20 12:29:43;;;;;;;15.70;11.13;;;26.50;99.90;;;;;;5034125;28;20017;-77
2021/07/20 12:32:14;;;;;;;15.68;11.05;;;26.10;99.90;;;;;;5034157;28;20022;-78
2021/07/20 12:34:44;;;;;;;15.27;11.32;;;25.90;99.90;;;;;;5018532;28;20110;-78
2021/07/20 12:37:10;;;;;;;15.88;11.57;;;25.90;99.90;;;;;;5015927;28;20037;-77
2021/07/20 12:39:41;;;;;;;15.00;10.88;;;26.00;99.90;;;;;;5033825;28;20076;-77
2021/07/20 12:42:08;;;;;;;15.90;11.93;;;26.20;99.90;;;;;;5033839;28;20493;-78
2021/07/20 12:44:36;;;;;;;14.15;10.68;;;26.30;99.90;;;;;;5015905;28;20112;-77
2021/07/20 12:47:16;;;;;;;17.33;11.55;;;26.40;99.90;;;;;;5022436;28;20099;-77
2021/07/20 12:49:45;;;;;;;17.95;12.57;;;26.50;99.90;;;;;;5031073;28;20067;-78
2021/07/20 12:52:15;;;;;;;16.13;12.15;;;26.80;99.90;;;;;;5038895;28;20353;-80
2021/07/20 12:54:43;;;;;;;19.17;12.48;;;26.70;99.90;;;;;;5038277;28;20017;-80
2021/07/20 12:57:10;;;;;;;18.08;12.77;;;26.30;99.90;;;;;;5035118;28;20331;-77
2021/07/20 12:59:43;;;;;;;17.17;12.23;;;25.90;99.90;;;;;;5003616;28;20533;-78